sensor_id;sensor_type;location;lat;lon;timestamp;temperature;humidity
3067;DHT22;1544;48.834;9.194;2023-09-18T00:01:58;22.20;40.70
3067;DHT22;1544;48.834;9.194;2023-09-18T00:04:34;22.20;40.90
3067;DHT22;1544;48.834;9.194;2023-09-18T00:07:10;22.20;41.00
3067;DHT22;1544;48.834;9.194;2023-09-18T00:09:46;22.10;41.00
3067;DHT22;1544;48.834;9.194;2023-09-18T00:12:24;22.10;41.10
3067;DHT22;1544;48.834;9.194;2023-09-18T00:15:00;22.00;41.10
3067;DHT22;1544;48.834;9.194;2023-09-18T00:17:36;22.00;41.10
3067;DHT22;1544;48.834;9.194;2023-09-18T00:20:12;22.00;41.10
3067;DHT22;1544;48.834;9.194;2023-09-18T00:22:49;21.90;41.10
3067;DHT22;1544;48.834;9.194;2023-09-18T00:25:25;21.90;41.30
3067;DHT22;1544;48.834;9.194;2023-09-18T00:28:01;21.90;41.60
3067;DHT22;1544;48.834;9.194;2023-09-18T00:30:38;21.80;41.60
3067;DHT22;1544;48.834;9.194;2023-09-18T00:33:19;21.80;41.80
3067;DHT22;1544;48.834;9.194;2023-09-18T00:35:55;21.80;42.00
3067;DHT22;1544;48.834;9.194;2023-09-18T00:38:31;21.80;42.00
3067;DHT22;1544;48.834;9.194;2023-09-18T00:41:07;21.80;42.10
3067;DHT22;1544;48.834;9.194;2023-09-18T00:43:43;21.80;42.00
3067;DHT22;1544;48.834;9.194;2023-09-18T00:46:19;21.70;42.00
3067;DHT22;1544;48.834;9.194;2023-09-18T00:48:55;21.70;42.00
3067;DHT22;1544;48.834;9.194;2023-09-18T00:51:32;21.70;42.00
3067;DHT22;1544;48.834;9.194;2023-09-18T00:54:08;21.70;42.10
3067;DHT22;1544;48.834;9.194;2023-09-18T00:56:46;21.70;42.20
3067;DHT22;1544;48.834;9.194;2023-09-18T00:59:24;21.80;42.20
3067;DHT22;1544;48.834;9.194;2023-09-18T01:02:00;21.80;42.30
3067;DHT22;1544;48.834;9.194;2023-09-18T01:04:37;21.80;42.30
3067;DHT22;1544;48.834;9.194;2023-09-18T01:07:13;21.80;42.30
3067;DHT22;1544;48.834;9.194;2023-09-18T01:09:49;21.80;42.30
3067;DHT22;1544;48.834;9.194;2023-09-18T01:12:33;21.80;42.40
3067;DHT22;1544;48.834;9.194;2023-09-18T01:15:36;21.80;42.40
3067;DHT22;1544;48.834;9.194;2023-09-18T01:18:17;21.90;42.60
3067;DHT22;1544;48.834;9.194;2023-09-18T01:20:54;21.90;42.70
3067;DHT22;1544;48.834;9.194;2023-09-18T01:23:30;21.90;42.70
3067;DHT22;1544;48.834;9.194;2023-09-18T01:26:06;21.90;42.70
3067;DHT22;1544;48.834;9.194;2023-09-18T01:28:42;21.90;42.90
3067;DHT22;1544;48.834;9.194;2023-09-18T01:31:18;21.90;42.90
3067;DHT22;1544;48.834;9.194;2023-09-18T01:33:55;21.90;42.90
3067;DHT22;1544;48.834;9.194;2023-09-18T01:36:32;21.90;42.90
3067;DHT22;1544;48.834;9.194;2023-09-18T01:39:09;21.90;42.80
3067;DHT22;1544;48.834;9.194;2023-09-18T01:41:47;22.00;42.90
3067;DHT22;1544;48.834;9.194;2023-09-18T01:44:23;22.00;42.80
3067;DHT22;1544;48.834;9.194;2023-09-18T01:47:02;22.00;42.70
3067;DHT22;1544;48.834;9.194;2023-09-18T01:49:40;22.10;42.60
3067;DHT22;1544;48.834;9.194;2023-09-18T01:52:16;22.10;42.50
3067;DHT22;1544;48.834;9.194;2023-09-18T01:54:52;22.10;42.30
3067;DHT22;1544;48.834;9.194;2023-09-18T01:57:28;22.20;42.30
3067;DHT22;1544;48.834;9.194;2023-09-18T02:00:05;22.20;42.10
3067;DHT22;1544;48.834;9.194;2023-09-18T02:02:48;22.30;42.00
3067;DHT22;1544;48.834;9.194;2023-09-18T02:05:36;22.30;41.70
3067;DHT22;1544;48.834;9.194;2023-09-18T02:08:13;22.40;41.70
3067;DHT22;1544;48.834;9.194;2023-09-18T02:10:49;22.50;41.80
3067;DHT22;1544;48.834;9.194;2023-09-18T02:13:25;22.50;42.60
3067;DHT22;1544;48.834;9.194;2023-09-18T02:16:01;22.50;43.10
3067;DHT22;1544;48.834;9.194;2023-09-18T02:18:39;22.50;43.30
3067;DHT22;1544;48.834;9.194;2023-09-18T02:21:21;22.60;43.40
3067;DHT22;1544;48.834;9.194;2023-09-18T02:23:57;22.60;43.80
3067;DHT22;1544;48.834;9.194;2023-09-18T02:26:33;22.60;44.40
3067;DHT22;1544;48.834;9.194;2023-09-18T02:29:09;22.50;44.40
3067;DHT22;1544;48.834;9.194;2023-09-18T02:31:50;22.50;44.60
3067;DHT22;1544;48.834;9.194;2023-09-18T02:34:26;22.50;44.90
3067;DHT22;1544;48.834;9.194;2023-09-18T02:37:02;22.40;44.90
3067;DHT22;1544;48.834;9.194;2023-09-18T02:39:38;22.40;45.10
3067;DHT22;1544;48.834;9.194;2023-09-18T02:42:14;22.40;45.20
3067;DHT22;1544;48.834;9.194;2023-09-18T02:44:50;22.30;44.90
3067;DHT22;1544;48.834;9.194;2023-09-18T02:47:26;22.30;45.10
3067;DHT22;1544;48.834;9.194;2023-09-18T02:50:04;22.30;45.20
3067;DHT22;1544;48.834;9.194;2023-09-18T02:52:41;22.30;45.00
3067;DHT22;1544;48.834;9.194;2023-09-18T02:55:17;22.30;45.00
3067;DHT22;1544;48.834;9.194;2023-09-18T02:57:54;22.20;45.10
3067;DHT22;1544;48.834;9.194;2023-09-18T03:00:30;22.10;45.30
3067;DHT22;1544;48.834;9.194;2023-09-18T03:03:19;22.10;45.40
3067;DHT22;1544;48.834;9.194;2023-09-18T03:06:04;22.00;45.50
3067;DHT22;1544;48.834;9.194;2023-09-18T03:08:41;22.00;45.40
3067;DHT22;1544;48.834;9.194;2023-09-18T03:11:18;22.00;45.10
3067;DHT22;1544;48.834;9.194;2023-09-18T03:13:54;21.90;45.30
3067;DHT22;1544;48.834;9.194;2023-09-18T03:16:31;21.90;45.90
3067;DHT22;1544;48.834;9.194;2023-09-18T03:19:08;21.80;46.00
3067;DHT22;1544;48.834;9.194;2023-09-18T03:21:45;21.70;46.20
3067;DHT22;1544;48.834;9.194;2023-09-18T03:24:22;21.70;46.40
3067;DHT22;1544;48.834;9.194;2023-09-18T03:26:58;21.60;47.70
3067;DHT22;1544;48.834;9.194;2023-09-18T03:29:34;21.60;47.70
3067;DHT22;1544;48.834;9.194;2023-09-18T03:32:12;21.60;47.90
3067;DHT22;1544;48.834;9.194;2023-09-18T03:34:53;21.60;48.20
3067;DHT22;1544;48.834;9.194;2023-09-18T03:37:30;21.60;48.30
3067;DHT22;1544;48.834;9.194;2023-09-18T03:40:07;21.60;48.30
3067;DHT22;1544;48.834;9.194;2023-09-18T03:42:45;21.60;48.20
3067;DHT22;1544;48.834;9.194;2023-09-18T03:45:21;21.60;48.40
3067;DHT22;1544;48.834;9.194;2023-09-18T03:47:58;21.60;48.60
3067;DHT22;1544;48.834;9.194;2023-09-18T03:50:34;21.60;49.00
3067;DHT22;1544;48.834;9.194;2023-09-18T03:53:10;21.50;49.40
3067;DHT22;1544;48.834;9.194;2023-09-18T03:55:48;21.50;49.30
3067;DHT22;1544;48.834;9.194;2023-09-18T03:58:24;21.50;49.10
3067;DHT22;1544;48.834;9.194;2023-09-18T04:01:01;21.50;48.90
3067;DHT22;1544;48.834;9.194;2023-09-18T04:03:38;21.50;49.30
3067;DHT22;1544;48.834;9.194;2023-09-18T04:06:14;21.50;48.90
3067;DHT22;1544;48.834;9.194;2023-09-18T04:08:50;21.60;48.50
3067;DHT22;1544;48.834;9.194;2023-09-18T04:11:27;21.60;48.20
3067;DHT22;1544;48.834;9.194;2023-09-18T04:14:04;21.60;48.10
3067;DHT22;1544;48.834;9.194;2023-09-18T04:16:40;21.70;47.90
3067;DHT22;1544;48.834;9.194;2023-09-18T04:19:17;21.70;48.00
3067;DHT22;1544;48.834;9.194;2023-09-18T04:21:53;21.70;48.20
3067;DHT22;1544;48.834;9.194;2023-09-18T04:24:29;21.80;48.30
3067;DHT22;1544;48.834;9.194;2023-09-18T04:27:08;21.70;48.40
3067;DHT22;1544;48.834;9.194;2023-09-18T04:29:44;21.70;48.80
3067;DHT22;1544;48.834;9.194;2023-09-18T04:32:20;21.70;49.40
3067;DHT22;1544;48.834;9.194;2023-09-18T04:34:56;21.70;49.70
3067;DHT22;1544;48.834;9.194;2023-09-18T04:37:36;21.70;50.30
3067;DHT22;1544;48.834;9.194;2023-09-18T04:40:15;21.70;50.40
3067;DHT22;1544;48.834;9.194;2023-09-18T04:42:51;21.60;51.00
3067;DHT22;1544;48.834;9.194;2023-09-18T04:45:27;21.70;51.30
3067;DHT22;1544;48.834;9.194;2023-09-18T04:48:04;21.60;51.20
3067;DHT22;1544;48.834;9.194;2023-09-18T04:50:41;21.60;51.40
3067;DHT22;1544;48.834;9.194;2023-09-18T04:53:18;21.50;51.40
3067;DHT22;1544;48.834;9.194;2023-09-18T04:55:54;21.50;51.60
3067;DHT22;1544;48.834;9.194;2023-09-18T04:58:32;21.40;51.80
3067;DHT22;1544;48.834;9.194;2023-09-18T05:01:08;21.40;51.90
3067;DHT22;1544;48.834;9.194;2023-09-18T05:03:48;21.40;52.00
3067;DHT22;1544;48.834;9.194;2023-09-18T05:06:24;21.40;52.20
3067;DHT22;1544;48.834;9.194;2023-09-18T05:09:00;21.40;52.40
3067;DHT22;1544;48.834;9.194;2023-09-18T05:11:36;21.40;52.70
3067;DHT22;1544;48.834;9.194;2023-09-18T05:14:12;21.40;52.90
3067;DHT22;1544;48.834;9.194;2023-09-18T05:16:48;21.40;53.30
3067;DHT22;1544;48.834;9.194;2023-09-18T05:19:24;21.50;53.20
3067;DHT22;1544;48.834;9.194;2023-09-18T05:22:00;21.40;52.70
3067;DHT22;1544;48.834;9.194;2023-09-18T05:24:39;21.50;52.50
3067;DHT22;1544;48.834;9.194;2023-09-18T05:27:15;21.50;52.10
3067;DHT22;1544;48.834;9.194;2023-09-18T05:29:52;21.50;51.80
3067;DHT22;1544;48.834;9.194;2023-09-18T05:32:28;21.50;51.40
3067;DHT22;1544;48.834;9.194;2023-09-18T05:35:05;21.50;51.10
3067;DHT22;1544;48.834;9.194;2023-09-18T05:37:42;21.50;50.80
3067;DHT22;1544;48.834;9.194;2023-09-18T05:40:19;21.50;50.80
3067;DHT22;1544;48.834;9.194;2023-09-18T05:42:55;21.60;50.60
3067;DHT22;1544;48.834;9.194;2023-09-18T05:45:32;21.60;50.40
3067;DHT22;1544;48.834;9.194;2023-09-18T05:48:09;21.60;50.20
3067;DHT22;1544;48.834;9.194;2023-09-18T05:50:45;21.60;50.10
3067;DHT22;1544;48.834;9.194;2023-09-18T05:53:21;21.70;50.10
3067;DHT22;1544;48.834;9.194;2023-09-18T05:55:57;21.70;50.10
3067;DHT22;1544;48.834;9.194;2023-09-18T05:58:39;21.70;49.80
3067;DHT22;1544;48.834;9.194;2023-09-18T06:01:15;21.70;49.90
3067;DHT22;1544;48.834;9.194;2023-09-18T06:03:51;21.70;49.70
3067;DHT22;1544;48.834;9.194;2023-09-18T06:06:27;21.70;49.40
3067;DHT22;1544;48.834;9.194;2023-09-18T06:09:03;21.80;49.20
3067;DHT22;1544;48.834;9.194;2023-09-18T06:11:39;21.80;49.30
3067;DHT22;1544;48.834;9.194;2023-09-18T06:14:15;21.80;49.20
3067;DHT22;1544;48.834;9.194;2023-09-18T06:16:51;21.90;49.40
3067;DHT22;1544;48.834;9.194;2023-09-18T06:19:27;21.80;49.40
3067;DHT22;1544;48.834;9.194;2023-09-18T06:22:03;21.90;49.40
3067;DHT22;1544;48.834;9.194;2023-09-18T06:24:39;21.80;49.70
3067;DHT22;1544;48.834;9.194;2023-09-18T06:27:15;21.80;50.10
3067;DHT22;1544;48.834;9.194;2023-09-18T06:29:51;21.80;50.00
3067;DHT22;1544;48.834;9.194;2023-09-18T06:32:27;21.80;50.00
3067;DHT22;1544;48.834;9.194;2023-09-18T06:35:04;21.70;49.80
3067;DHT22;1544;48.834;9.194;2023-09-18T06:37:40;21.70;49.40
3067;DHT22;1544;48.834;9.194;2023-09-18T06:40:16;21.80;49.30
3067;DHT22;1544;48.834;9.194;2023-09-18T06:42:58;21.70;49.40
3067;DHT22;1544;48.834;9.194;2023-09-18T06:45:35;21.80;49.00
3067;DHT22;1544;48.834;9.194;2023-09-18T06:48:13;21.80;49.00
3067;DHT22;1544;48.834;9.194;2023-09-18T06:50:50;21.80;48.90
3067;DHT22;1544;48.834;9.194;2023-09-18T06:53:28;21.90;49.00
3067;DHT22;1544;48.834;9.194;2023-09-18T06:56:04;21.80;48.60
3067;DHT22;1544;48.834;9.194;2023-09-18T06:58:41;21.90;48.70
3067;DHT22;1544;48.834;9.194;2023-09-18T07:01:18;21.90;48.90
3067;DHT22;1544;48.834;9.194;2023-09-18T07:03:54;21.90;49.00
3067;DHT22;1544;48.834;9.194;2023-09-18T07:06:32;21.80;48.90
3067;DHT22;1544;48.834;9.194;2023-09-18T07:09:08;21.80;48.80
3067;DHT22;1544;48.834;9.194;2023-09-18T07:11:47;21.90;48.80
3067;DHT22;1544;48.834;9.194;2023-09-18T07:14:23;21.90;48.80
3067;DHT22;1544;48.834;9.194;2023-09-18T07:16:59;21.90;48.70
3067;DHT22;1544;48.834;9.194;2023-09-18T07:19:36;21.90;48.60
3067;DHT22;1544;48.834;9.194;2023-09-18T07:22:12;22.00;48.60
3067;DHT22;1544;48.834;9.194;2023-09-18T07:24:48;22.10;48.50
3067;DHT22;1544;48.834;9.194;2023-09-18T07:27:24;22.10;48.70
3067;DHT22;1544;48.834;9.194;2023-09-18T07:30:00;22.20;48.70
3067;DHT22;1544;48.834;9.194;2023-09-18T07:32:36;22.30;48.50
3067;DHT22;1544;48.834;9.194;2023-09-18T07:35:15;22.30;48.30
3067;DHT22;1544;48.834;9.194;2023-09-18T07:37:51;22.30;47.80
3067;DHT22;1544;48.834;9.194;2023-09-18T07:40:27;22.40;47.50
3067;DHT22;1544;48.834;9.194;2023-09-18T07:43:04;22.40;47.00
3067;DHT22;1544;48.834;9.194;2023-09-18T07:45:40;22.40;46.60
3067;DHT22;1544;48.834;9.194;2023-09-18T07:48:16;22.40;45.20
3067;DHT22;1544;48.834;9.194;2023-09-18T07:50:55;22.40;45.30
3067;DHT22;1544;48.834;9.194;2023-09-18T07:53:31;22.40;44.40
3067;DHT22;1544;48.834;9.194;2023-09-18T07:56:08;22.40;44.20
3067;DHT22;1544;48.834;9.194;2023-09-18T07:58:44;22.50;44.10
3067;DHT22;1544;48.834;9.194;2023-09-18T08:01:22;22.60;44.00
3067;DHT22;1544;48.834;9.194;2023-09-18T08:03:59;22.60;44.20
3067;DHT22;1544;48.834;9.194;2023-09-18T08:06:36;22.70;44.00
3067;DHT22;1544;48.834;9.194;2023-09-18T08:09:13;22.80;43.90
3067;DHT22;1544;48.834;9.194;2023-09-18T08:11:51;22.90;43.60
3067;DHT22;1544;48.834;9.194;2023-09-18T08:14:31;23.00;43.20
3067;DHT22;1544;48.834;9.194;2023-09-18T08:17:07;23.10;42.70
3067;DHT22;1544;48.834;9.194;2023-09-18T08:19:45;23.20;42.20
3067;DHT22;1544;48.834;9.194;2023-09-18T08:22:21;23.20;42.40
3067;DHT22;1544;48.834;9.194;2023-09-18T08:24:57;23.20;41.80
3067;DHT22;1544;48.834;9.194;2023-09-18T08:27:33;23.20;41.80
3067;DHT22;1544;48.834;9.194;2023-09-18T08:30:12;23.20;41.60
3067;DHT22;1544;48.834;9.194;2023-09-18T08:32:49;23.10;41.20
3067;DHT22;1544;48.834;9.194;2023-09-18T08:35:25;23.10;40.90
3067;DHT22;1544;48.834;9.194;2023-09-18T08:38:05;23.00;40.70
3067;DHT22;1544;48.834;9.194;2023-09-18T08:40:41;22.90;41.40
3067;DHT22;1544;48.834;9.194;2023-09-18T08:43:18;22.90;41.40
3067;DHT22;1544;48.834;9.194;2023-09-18T08:45:55;22.90;42.00
3067;DHT22;1544;48.834;9.194;2023-09-18T08:48:37;22.90;43.30
3067;DHT22;1544;48.834;9.194;2023-09-18T08:51:16;23.00;43.70
3067;DHT22;1544;48.834;9.194;2023-09-18T08:53:54;23.00;43.10
3067;DHT22;1544;48.834;9.194;2023-09-18T08:56:32;23.00;43.50
3067;DHT22;1544;48.834;9.194;2023-09-18T08:59:12;22.90;43.70
3067;DHT22;1544;48.834;9.194;2023-09-18T09:01:49;23.00;43.70
3067;DHT22;1544;48.834;9.194;2023-09-18T09:04:25;22.90;43.90
3067;DHT22;1544;48.834;9.194;2023-09-18T09:07:02;22.80;43.90
3067;DHT22;1544;48.834;9.194;2023-09-18T09:09:39;22.80;44.60
3067;DHT22;1544;48.834;9.194;2023-09-18T09:12:50;22.60;44.70
3067;DHT22;1544;48.834;9.194;2023-09-18T09:15:44;22.60;45.10
3067;DHT22;1544;48.834;9.194;2023-09-18T09:18:27;22.60;46.20
3067;DHT22;1544;48.834;9.194;2023-09-18T09:21:04;22.50;46.70
3067;DHT22;1544;48.834;9.194;2023-09-18T09:23:52;22.50;47.10
3067;DHT22;1544;48.834;9.194;2023-09-18T09:26:29;22.40;47.60
3067;DHT22;1544;48.834;9.194;2023-09-18T09:29:34;22.40;47.50
3067;DHT22;1544;48.834;9.194;2023-09-18T09:32:14;22.40;48.00
3067;DHT22;1544;48.834;9.194;2023-09-18T09:34:57;22.40;48.10
3067;DHT22;1544;48.834;9.194;2023-09-18T09:37:38;22.40;48.10
3067;DHT22;1544;48.834;9.194;2023-09-18T09:40:15;22.40;48.90
3067;DHT22;1544;48.834;9.194;2023-09-18T09:42:55;22.30;48.80
3067;DHT22;1544;48.834;9.194;2023-09-18T09:45:40;22.30;48.80
3067;DHT22;1544;48.834;9.194;2023-09-18T09:48:17;22.30;49.10
3067;DHT22;1544;48.834;9.194;2023-09-18T09:50:58;22.40;49.70
3067;DHT22;1544;48.834;9.194;2023-09-18T09:53:45;22.40;49.70
3067;DHT22;1544;48.834;9.194;2023-09-18T09:56:47;22.50;50.20
3067;DHT22;1544;48.834;9.194;2023-09-18T09:59:26;22.60;50.60
3067;DHT22;1544;48.834;9.194;2023-09-18T10:02:07;22.60;50.70
3067;DHT22;1544;48.834;9.194;2023-09-18T10:04:45;22.70;50.80
3067;DHT22;1544;48.834;9.194;2023-09-18T10:07:24;22.80;50.80
3067;DHT22;1544;48.834;9.194;2023-09-18T10:10:00;22.90;50.90
3067;DHT22;1544;48.834;9.194;2023-09-18T10:12:37;23.00;50.80
3067;DHT22;1544;48.834;9.194;2023-09-18T10:15:15;23.10;50.80
3067;DHT22;1544;48.834;9.194;2023-09-18T10:17:56;23.20;50.70
3067;DHT22;1544;48.834;9.194;2023-09-18T10:20:40;23.10;50.30
3067;DHT22;1544;48.834;9.194;2023-09-18T10:23:24;23.10;50.30
3067;DHT22;1544;48.834;9.194;2023-09-18T10:26:11;23.00;49.80
3067;DHT22;1544;48.834;9.194;2023-09-18T10:28:53;22.80;49.60
3067;DHT22;1544;48.834;9.194;2023-09-18T10:31:33;22.70;49.70
3067;DHT22;1544;48.834;9.194;2023-09-18T10:34:12;22.70;50.20
3067;DHT22;1544;48.834;9.194;2023-09-18T10:36:53;22.60;50.60
3067;DHT22;1544;48.834;9.194;2023-09-18T10:39:31;22.50;50.80
3067;DHT22;1544;48.834;9.194;2023-09-18T10:42:14;22.60;52.10
3067;DHT22;1544;48.834;9.194;2023-09-18T10:44:52;22.60;52.60
3067;DHT22;1544;48.834;9.194;2023-09-18T10:47:28;22.60;52.50
3067;DHT22;1544;48.834;9.194;2023-09-18T10:50:06;22.60;52.60
3067;DHT22;1544;48.834;9.194;2023-09-18T10:52:43;22.60;53.40
3067;DHT22;1544;48.834;9.194;2023-09-18T10:55:21;22.70;53.90
3067;DHT22;1544;48.834;9.194;2023-09-18T10:57:59;22.80;54.10
3067;DHT22;1544;48.834;9.194;2023-09-18T11:00:35;22.90;53.80
3067;DHT22;1544;48.834;9.194;2023-09-18T11:03:17;22.90;53.30
3067;DHT22;1544;48.834;9.194;2023-09-18T11:06:10;22.90;53.00
3067;DHT22;1544;48.834;9.194;2023-09-18T11:08:49;22.90;51.90
3067;DHT22;1544;48.834;9.194;2023-09-18T11:11:25;22.90;51.80
3067;DHT22;1544;48.834;9.194;2023-09-18T11:14:10;22.90;51.90
3067;DHT22;1544;48.834;9.194;2023-09-18T11:16:49;22.80;51.50
3067;DHT22;1544;48.834;9.194;2023-09-18T11:19:28;22.80;51.50
3067;DHT22;1544;48.834;9.194;2023-09-18T11:22:08;22.80;51.30
3067;DHT22;1544;48.834;9.194;2023-09-18T11:24:45;22.70;51.10
3067;DHT22;1544;48.834;9.194;2023-09-18T11:27:24;22.70;51.30
3067;DHT22;1544;48.834;9.194;2023-09-18T11:30:01;22.70;51.50
3067;DHT22;1544;48.834;9.194;2023-09-18T11:32:38;22.70;51.80
3067;DHT22;1544;48.834;9.194;2023-09-18T11:35:16;22.70;51.30
3067;DHT22;1544;48.834;9.194;2023-09-18T11:38:09;22.70;50.70
3067;DHT22;1544;48.834;9.194;2023-09-18T11:40:45;22.70;50.70
3067;DHT22;1544;48.834;9.194;2023-09-18T11:43:28;22.60;50.50
3067;DHT22;1544;48.834;9.194;2023-09-18T11:46:11;22.60;50.00
3067;DHT22;1544;48.834;9.194;2023-09-18T11:48:48;22.60;49.00
3067;DHT22;1544;48.834;9.194;2023-09-18T11:51:28;22.70;49.40
3067;DHT22;1544;48.834;9.194;2023-09-18T11:54:05;22.60;49.50
3067;DHT22;1544;48.834;9.194;2023-09-18T11:56:43;22.60;49.30
3067;DHT22;1544;48.834;9.194;2023-09-18T11:59:33;22.60;49.40
3067;DHT22;1544;48.834;9.194;2023-09-18T12:02:14;22.70;50.00
3067;DHT22;1544;48.834;9.194;2023-09-18T12:05:19;22.70;49.40
3067;DHT22;1544;48.834;9.194;2023-09-18T12:07:55;22.80;48.80
3067;DHT22;1544;48.834;9.194;2023-09-18T12:10:32;22.90;48.30
3067;DHT22;1544;48.834;9.194;2023-09-18T12:13:08;22.90;48.60
3067;DHT22;1544;48.834;9.194;2023-09-18T12:15:44;22.90;48.20
3067;DHT22;1544;48.834;9.194;2023-09-18T12:18:20;22.90;47.90
3067;DHT22;1544;48.834;9.194;2023-09-18T12:20:58;23.00;48.20
3067;DHT22;1544;48.834;9.194;2023-09-18T12:23:39;23.00;48.70
3067;DHT22;1544;48.834;9.194;2023-09-18T12:26:16;23.10;49.10
3067;DHT22;1544;48.834;9.194;2023-09-18T12:28:56;23.10;49.40
3067;DHT22;1544;48.834;9.194;2023-09-18T12:31:34;23.10;49.20
3067;DHT22;1544;48.834;9.194;2023-09-18T12:34:19;23.10;48.90
3067;DHT22;1544;48.834;9.194;2023-09-18T12:36:58;23.00;48.20
3067;DHT22;1544;48.834;9.194;2023-09-18T12:39:35;23.00;48.10
3067;DHT22;1544;48.834;9.194;2023-09-18T12:42:13;23.10;48.30
3067;DHT22;1544;48.834;9.194;2023-09-18T12:44:49;23.20;48.80
3067;DHT22;1544;48.834;9.194;2023-09-18T12:47:26;23.40;48.70
3067;DHT22;1544;48.834;9.194;2023-09-18T12:50:03;23.50;48.40
3067;DHT22;1544;48.834;9.194;2023-09-18T12:52:40;23.70;48.00
3067;DHT22;1544;48.834;9.194;2023-09-18T12:55:26;23.90;47.80
3067;DHT22;1544;48.834;9.194;2023-09-18T12:58:03;24.20;47.60
3067;DHT22;1544;48.834;9.194;2023-09-18T13:00:50;24.40;47.10
3067;DHT22;1544;48.834;9.194;2023-09-18T13:03:26;24.60;46.50
3067;DHT22;1544;48.834;9.194;2023-09-18T13:06:18;24.80;46.20
3067;DHT22;1544;48.834;9.194;2023-09-18T13:08:54;25.00;45.40
3067;DHT22;1544;48.834;9.194;2023-09-18T13:11:52;25.10;44.90
3067;DHT22;1544;48.834;9.194;2023-09-18T13:14:29;25.20;44.00
3067;DHT22;1544;48.834;9.194;2023-09-18T13:17:07;25.20;43.90
3067;DHT22;1544;48.834;9.194;2023-09-18T13:19:43;25.30;43.20
3067;DHT22;1544;48.834;9.194;2023-09-18T13:22:25;25.30;43.00
3067;DHT22;1544;48.834;9.194;2023-09-18T13:25:01;25.50;42.90
3067;DHT22;1544;48.834;9.194;2023-09-18T13:27:38;25.60;42.10
3067;DHT22;1544;48.834;9.194;2023-09-18T13:30:14;25.70;42.40
3067;DHT22;1544;48.834;9.194;2023-09-18T13:33:02;25.80;42.00
3067;DHT22;1544;48.834;9.194;2023-09-18T13:35:44;25.90;42.00
3067;DHT22;1544;48.834;9.194;2023-09-18T13:38:24;26.00;42.30
3067;DHT22;1544;48.834;9.194;2023-09-18T13:41:03;26.10;42.00
3067;DHT22;1544;48.834;9.194;2023-09-18T13:43:41;26.20;41.90
3067;DHT22;1544;48.834;9.194;2023-09-18T13:46:19;26.50;41.20
3067;DHT22;1544;48.834;9.194;2023-09-18T13:49:00;26.90;41.40
3067;DHT22;1544;48.834;9.194;2023-09-18T13:51:36;27.10;39.60
3067;DHT22;1544;48.834;9.194;2023-09-18T13:54:13;27.10;38.40
3067;DHT22;1544;48.834;9.194;2023-09-18T13:56:52;27.10;38.50
3067;DHT22;1544;48.834;9.194;2023-09-18T13:59:33;27.10;38.00
3067;DHT22;1544;48.834;9.194;2023-09-18T14:02:09;27.10;37.00
3067;DHT22;1544;48.834;9.194;2023-09-18T14:04:45;27.20;37.60
3067;DHT22;1544;48.834;9.194;2023-09-18T14:07:24;27.20;37.40
3067;DHT22;1544;48.834;9.194;2023-09-18T14:10:01;27.10;37.20
3067;DHT22;1544;48.834;9.194;2023-09-18T14:12:45;27.10;37.40
3067;DHT22;1544;48.834;9.194;2023-09-18T14:15:25;27.10;37.40
3067;DHT22;1544;48.834;9.194;2023-09-18T14:18:02;27.00;37.50
3067;DHT22;1544;48.834;9.194;2023-09-18T14:20:40;27.00;37.00
3067;DHT22;1544;48.834;9.194;2023-09-18T14:23:17;26.90;36.90
3067;DHT22;1544;48.834;9.194;2023-09-18T14:25:53;26.80;37.10
3067;DHT22;1544;48.834;9.194;2023-09-18T14:28:30;26.80;37.30
3067;DHT22;1544;48.834;9.194;2023-09-18T14:31:08;26.90;37.20
3067;DHT22;1544;48.834;9.194;2023-09-18T14:33:45;26.80;37.00
3067;DHT22;1544;48.834;9.194;2023-09-18T14:36:21;26.90;36.80
3067;DHT22;1544;48.834;9.194;2023-09-18T14:38:57;26.80;36.30
3067;DHT22;1544;48.834;9.194;2023-09-18T14:41:35;26.80;36.40
3067;DHT22;1544;48.834;9.194;2023-09-18T14:44:11;26.90;36.30
3067;DHT22;1544;48.834;9.194;2023-09-18T14:46:47;26.90;36.40
3067;DHT22;1544;48.834;9.194;2023-09-18T14:49:23;27.00;36.10
3067;DHT22;1544;48.834;9.194;2023-09-18T14:52:00;27.00;35.70
3067;DHT22;1544;48.834;9.194;2023-09-18T14:54:36;27.10;36.10
3067;DHT22;1544;48.834;9.194;2023-09-18T14:57:12;27.30;35.90
3067;DHT22;1544;48.834;9.194;2023-09-18T14:59:48;27.40;35.70
3067;DHT22;1544;48.834;9.194;2023-09-18T15:02:25;27.60;36.30
3067;DHT22;1544;48.834;9.194;2023-09-18T15:05:05;27.90;35.50
3067;DHT22;1544;48.834;9.194;2023-09-18T15:07:44;28.20;35.20
3067;DHT22;1544;48.834;9.194;2023-09-18T15:10:20;28.40;35.50
3067;DHT22;1544;48.834;9.194;2023-09-18T15:12:56;28.60;35.30
3067;DHT22;1544;48.834;9.194;2023-09-18T15:15:32;28.70;34.70
3067;DHT22;1544;48.834;9.194;2023-09-18T15:18:09;28.60;34.20
3067;DHT22;1544;48.834;9.194;2023-09-18T15:20:45;28.50;34.70
3067;DHT22;1544;48.834;9.194;2023-09-18T15:23:24;28.50;34.30
3067;DHT22;1544;48.834;9.194;2023-09-18T15:26:00;28.30;34.10
3067;DHT22;1544;48.834;9.194;2023-09-18T15:28:37;28.20;34.60
3067;DHT22;1544;48.834;9.194;2023-09-18T15:31:13;28.20;35.00
3067;DHT22;1544;48.834;9.194;2023-09-18T15:33:48;28.20;34.70
3067;DHT22;1544;48.834;9.194;2023-09-18T15:36:25;28.00;35.00
3067;DHT22;1544;48.834;9.194;2023-09-18T15:39:01;28.10;35.40
3067;DHT22;1544;48.834;9.194;2023-09-18T15:41:39;28.20;34.60
3067;DHT22;1544;48.834;9.194;2023-09-18T15:44:15;28.40;34.80
3067;DHT22;1544;48.834;9.194;2023-09-18T15:46:51;28.40;33.90
3067;DHT22;1544;48.834;9.194;2023-09-18T15:49:27;28.50;34.10
3067;DHT22;1544;48.834;9.194;2023-09-18T15:52:03;28.50;34.00
3067;DHT22;1544;48.834;9.194;2023-09-18T15:54:39;28.60;34.10
3067;DHT22;1544;48.834;9.194;2023-09-18T15:57:15;28.60;33.90
3067;DHT22;1544;48.834;9.194;2023-09-18T15:59:52;28.60;34.40
3067;DHT22;1544;48.834;9.194;2023-09-18T16:02:28;28.80;34.40
3067;DHT22;1544;48.834;9.194;2023-09-18T16:05:05;29.00;34.00
3067;DHT22;1544;48.834;9.194;2023-09-18T16:07:41;29.00;33.30
3067;DHT22;1544;48.834;9.194;2023-09-18T16:10:17;28.80;33.50
3067;DHT22;1544;48.834;9.194;2023-09-18T16:12:53;28.70;33.60
3067;DHT22;1544;48.834;9.194;2023-09-18T16:15:29;28.40;33.40
3067;DHT22;1544;48.834;9.194;2023-09-18T16:18:05;28.00;33.70
3067;DHT22;1544;48.834;9.194;2023-09-18T16:20:41;27.70;34.70
3067;DHT22;1544;48.834;9.194;2023-09-18T16:23:17;27.50;34.60
3067;DHT22;1544;48.834;9.194;2023-09-18T16:25:53;27.20;34.40
3067;DHT22;1544;48.834;9.194;2023-09-18T16:28:29;27.00;34.80
3067;DHT22;1544;48.834;9.194;2023-09-18T16:31:05;26.60;34.80
3067;DHT22;1544;48.834;9.194;2023-09-18T16:33:44;26.30;35.10
3067;DHT22;1544;48.834;9.194;2023-09-18T16:36:20;26.10;35.30
3067;DHT22;1544;48.834;9.194;2023-09-18T16:38:56;25.90;35.40
3067;DHT22;1544;48.834;9.194;2023-09-18T16:41:32;25.60;35.90
3067;DHT22;1544;48.834;9.194;2023-09-18T16:44:08;25.50;36.40
3067;DHT22;1544;48.834;9.194;2023-09-18T16:46:45;25.30;36.20
3067;DHT22;1544;48.834;9.194;2023-09-18T16:49:21;25.20;36.40
3067;DHT22;1544;48.834;9.194;2023-09-18T16:51:58;25.10;36.50
3067;DHT22;1544;48.834;9.194;2023-09-18T16:54:34;25.00;36.50
3067;DHT22;1544;48.834;9.194;2023-09-18T16:57:10;24.90;36.60
3067;DHT22;1544;48.834;9.194;2023-09-18T16:59:48;24.80;36.70
3067;DHT22;1544;48.834;9.194;2023-09-18T17:02:24;24.70;36.80
3067;DHT22;1544;48.834;9.194;2023-09-18T17:05:00;24.60;36.60
3067;DHT22;1544;48.834;9.194;2023-09-18T17:07:36;24.50;36.90
3067;DHT22;1544;48.834;9.194;2023-09-18T17:10:12;24.40;37.20
3067;DHT22;1544;48.834;9.194;2023-09-18T17:12:48;24.30;37.20